createdAt,value
2018-01-16T00:00:49.970Z,93.04
2018-01-16T00:01:49.182Z,92.72
2018-01-16T00:02:50.166Z,92.96
2018-01-16T00:03:49.556Z,93.04
2018-01-16T00:04:49.919Z,92.93
2018-01-16T00:05:49.862Z,92.87
2018-01-16T00:06:49.118Z,92.99
2018-01-16T00:07:49.099Z,92.59
2018-01-16T00:08:49.300Z,92.66
2018-01-16T00:09:49.443Z,92.82
2018-01-16T00:10:50.120Z,92.88
2018-01-16T00:11:48.996Z,92.94
2018-01-16T00:12:49.225Z,92.85
2018-01-16T00:13:49.198Z,93.16
2018-01-16T00:14:49.200Z,92.21
2018-01-16T00:15:49.176Z,91.97
2018-01-16T00:16:49.137Z,92.36
2018-01-16T00:17:49.121Z,92.19
2018-01-16T00:18:49.256Z,92.31
2018-01-16T00:19:49.142Z,92.09
2018-01-16T00:20:49.313Z,92.07
2018-01-16T00:21:49.238Z,91.75
2018-01-16T00:22:49.145Z,91.82
2018-01-16T00:23:49.396Z,92.02
2018-01-16T00:24:49.141Z,92.05
2018-01-16T00:25:49.272Z,92.09
2018-01-16T00:26:49.289Z,91.78
2018-01-16T00:27:49.196Z,91.9
2018-01-16T00:28:49.177Z,91.96
2018-01-16T00:29:49.197Z,91.65
2018-01-16T00:30:48.260Z,91.56
2018-01-16T00:31:48.207Z,91.87
2018-01-16T00:32:48.205Z,91.58
2018-01-16T00:36:01.282Z,92.04
2018-01-16T00:36:48.303Z,91.99
2018-01-16T00:37:48.232Z,91.98
2018-01-16T00:38:48.300Z,91.47
2018-01-16T00:39:48.337Z,91.49
2018-01-16T00:40:48.467Z,91.6
2018-01-16T00:41:48.350Z,91.79
2018-01-16T00:42:48.375Z,91.74
2018-01-16T00:43:48.390Z,91.11
2018-01-16T00:44:48.254Z,91.18
2018-01-16T00:45:48.286Z,91.28
2018-01-16T00:46:48.247Z,90.72
2018-01-16T00:47:48.233Z,91.06
2018-01-16T00:48:48.283Z,91.02
2018-01-16T00:49:48.222Z,90.94
2018-01-16T00:50:48.268Z,90.74
2018-01-16T00:51:48.333Z,90.86
2018-01-16T00:52:48.228Z,90.93
2018-01-16T00:53:48.332Z,90.69
2018-01-16T00:54:48.429Z,90.64
2018-01-16T00:55:48.220Z,90.91
2018-01-16T00:56:48.169Z,90.63
2018-01-16T00:57:48.266Z,90.74
2018-01-16T00:58:48.356Z,90.88
2018-01-16T00:59:48.283Z,90.81
2018-01-16T01:00:48.487Z,90.64
2018-01-16T01:01:48.294Z,90.73
2018-01-16T01:02:48.279Z,90.56
2018-01-16T01:03:48.284Z,90.61
2018-01-16T01:04:49.046Z,90.63
2018-01-16T01:05:48.508Z,90.79
2018-01-16T01:06:48.289Z,90.67
2018-01-16T01:07:48.411Z,90.42
2018-01-16T01:08:48.219Z,90.63
2018-01-16T01:09:48.437Z,90.61
2018-01-16T01:10:48.279Z,90.7
2018-01-16T01:11:48.218Z,90.84
2018-01-16T01:12:48.304Z,90.81
2018-01-16T01:13:48.229Z,90.5
2018-01-16T01:14:48.405Z,90.68
2018-01-16T01:15:48.392Z,90.72
2018-01-16T01:16:48.487Z,90.7
2018-01-16T01:17:48.438Z,90.84
2018-01-16T01:18:48.143Z,90.62
2018-01-16T01:19:48.407Z,91.14
2018-01-16T01:20:48.351Z,91.12
2018-01-16T01:21:48.212Z,90.79
2018-01-16T01:22:48.313Z,90.89
2018-01-16T01:23:48.220Z,90.73
2018-01-16T01:24:48.296Z,90.7
2018-01-16T01:25:48.419Z,90.95
2018-01-16T01:26:48.307Z,90.63
2018-01-16T01:27:48.266Z,90.84
2018-01-16T01:28:48.158Z,90.8
2018-01-16T01:29:48.257Z,90.67
2018-01-16T01:30:48.220Z,90.77
2018-01-16T01:31:48.666Z,91.04
2018-01-16T01:32:48.354Z,90.71
2018-01-16T01:33:48.389Z,91
2018-01-16T01:34:48.124Z,91.09
2018-01-16T01:35:48.441Z,90.95
2018-01-16T01:36:48.275Z,90.61
2018-01-16T01:37:48.542Z,90.44
2018-01-16T01:38:48.216Z,90.46
2018-01-16T01:39:48.340Z,90.37
2018-01-16T01:40:48.439Z,90.53
2018-01-16T01:41:48.283Z,90.37
2018-01-16T01:42:48.372Z,90.41
2018-01-16T01:43:48.297Z,90.12
2018-01-16T01:44:48.374Z,89.9
2018-01-16T01:47:58.954Z,89.46
2018-01-16T01:48:48.607Z,89.37
2018-01-16T01:49:48.265Z,89.37
2018-01-16T01:50:48.295Z,88.68
2018-01-16T01:51:48.355Z,88.7
2018-01-16T01:52:48.307Z,88.77
2018-01-16T01:53:48.234Z,88.57
2018-01-16T01:54:48.276Z,88.18
2018-01-16T01:55:48.197Z,88.49
2018-01-16T01:56:48.216Z,88.15
2018-01-16T01:57:48.251Z,88.48
2018-01-16T01:58:48.340Z,88.44
2018-01-16T01:59:48.532Z,88.46
2018-01-16T02:00:48.488Z,88.38
2018-01-16T02:01:48.281Z,88.34
2018-01-16T02:02:48.358Z,87.99
2018-01-16T02:03:48.384Z,88.33
2018-01-16T02:04:48.350Z,88.02
2018-01-16T02:05:48.380Z,87.89
2018-01-16T02:06:48.231Z,88
2018-01-16T02:07:48.250Z,87.91
2018-01-16T02:08:48.225Z,88.33
2018-01-16T02:09:48.444Z,88.05
2018-01-16T02:10:48.300Z,87.92
2018-01-16T02:11:48.393Z,88.3
2018-01-16T02:12:48.343Z,88.14
2018-01-16T02:13:48.346Z,88.54
2018-01-16T02:14:48.360Z,88.38
2018-01-16T02:15:48.315Z,88.65
2018-01-16T02:16:48.406Z,88.7
2018-01-16T02:17:48.359Z,88.33
2018-01-16T02:18:48.180Z,88.14
2018-01-16T02:19:48.421Z,87.88
2018-01-16T02:20:48.344Z,87.57
2018-01-16T02:21:48.165Z,87.76
2018-01-16T02:22:48.357Z,88
2018-01-16T02:23:48.382Z,88.08
2018-01-16T02:24:48.328Z,87.86
2018-01-16T02:25:48.334Z,88.25
2018-01-16T02:26:48.480Z,88.24
2018-01-16T02:27:48.397Z,87.99
2018-01-16T02:28:48.429Z,88.15
2018-01-16T02:29:48.350Z,88.35
2018-01-16T02:30:48.445Z,88.37
2018-01-16T02:31:48.380Z,88.19
2018-01-16T02:32:48.340Z,88.22
2018-01-16T02:33:48.394Z,88.27
2018-01-16T02:34:48.366Z,88.4
2018-01-16T02:35:48.391Z,88.59
2018-01-16T02:36:48.276Z,88.65
2018-01-16T02:37:48.324Z,88.59
2018-01-16T02:38:48.423Z,88.54
2018-01-16T02:39:48.323Z,88.64
2018-01-16T02:40:48.460Z,88.77
2018-01-16T02:41:48.588Z,88.67
2018-01-16T02:42:48.477Z,88.92
2018-01-16T02:43:48.303Z,88.9
2018-01-16T02:44:48.355Z,89.23
2018-01-16T02:45:48.386Z,89.43
2018-01-16T02:46:48.496Z,89.27
2018-01-16T02:47:48.388Z,89.12
2018-01-16T02:48:48.243Z,89.35
2018-01-16T02:49:48.169Z,89.2
2018-01-16T02:50:48.536Z,88.9
2018-01-16T02:51:48.309Z,89
2018-01-16T02:52:48.525Z,89.04
2018-01-16T02:53:48.421Z,88.8
2018-01-16T02:54:48.406Z,88.93
2018-01-16T02:55:48.350Z,89.19
2018-01-16T02:56:48.367Z,89.42
2018-01-16T02:57:48.395Z,89.85
2018-01-16T02:58:48.319Z,90.12
2018-01-16T02:59:48.420Z,90.41
2018-01-16T03:00:48.584Z,90.81
2018-01-16T03:01:48.524Z,91.06
2018-01-16T03:02:48.418Z,91.06
2018-01-16T03:03:48.412Z,91.11
2018-01-16T03:04:48.527Z,91.71
2018-01-16T03:05:48.638Z,91.57
2018-01-16T03:06:48.393Z,91.85
2018-01-16T03:07:48.456Z,92.12
2018-01-16T03:08:48.521Z,92.15
2018-01-16T03:09:48.396Z,92.21
2018-01-16T03:10:48.437Z,92.03
2018-01-16T03:11:48.390Z,91.91
2018-01-16T03:12:48.568Z,92.52
2018-01-16T03:13:48.495Z,92.89
2018-01-16T03:14:48.436Z,92.99
2018-01-16T03:15:48.320Z,93.26
2018-01-16T03:16:48.580Z,93.24
2018-01-16T03:17:48.378Z,93.72
2018-01-16T03:18:48.469Z,93.8
2018-01-16T03:19:48.320Z,93.84
2018-01-16T03:20:48.444Z,94.05
2018-01-16T03:21:48.351Z,94.18
2018-01-16T03:22:48.525Z,93.98
2018-01-16T03:23:48.478Z,94.15
2018-01-16T03:24:48.292Z,93.95
2018-01-16T03:25:48.477Z,94.15
2018-01-16T03:26:48.251Z,94.26
2018-01-16T03:27:48.637Z,94.33
2018-01-16T03:28:48.529Z,94.37
2018-01-16T03:29:48.470Z,94.62
2018-01-16T03:30:48.443Z,94.53
2018-01-16T03:31:48.492Z,94.39
2018-01-16T03:32:48.536Z,94.74
2018-01-16T03:33:48.478Z,94.44
2018-01-16T03:34:48.449Z,94.65
2018-01-16T03:35:48.523Z,94.92
2018-01-16T03:36:48.541Z,94.61
2018-01-16T03:37:48.553Z,95.07
2018-01-16T03:38:48.607Z,95.03
2018-01-16T03:39:48.575Z,94.95
2018-01-16T03:40:48.469Z,95
2018-01-16T03:41:48.597Z,94.91
2018-01-16T03:42:48.429Z,95.39
2018-01-16T03:43:48.645Z,94.78
2018-01-16T03:44:48.484Z,94.94
2018-01-16T03:45:48.450Z,94.98
2018-01-16T03:46:48.444Z,94.97
2018-01-16T03:47:48.372Z,94.76
2018-01-16T03:48:48.536Z,94.92
2018-01-16T03:49:48.730Z,94.94
2018-01-16T03:50:48.622Z,94.75
2018-01-16T03:51:48.396Z,95.08
2018-01-16T03:52:49.268Z,94.95
2018-01-16T03:53:48.340Z,95
2018-01-16T03:54:48.475Z,95.19
2018-01-16T03:55:48.915Z,95.27
2018-01-16T03:56:48.587Z,95.16
2018-01-16T03:57:48.632Z,94.96
2018-01-16T03:58:48.580Z,94.94
2018-01-16T03:59:48.687Z,95.02
2018-01-16T04:00:49.431Z,95.05
2018-01-16T04:01:49.432Z,95
2018-01-16T04:02:49.445Z,94.83
2018-01-16T04:03:48.635Z,94.75
2018-01-16T04:04:48.359Z,94.48
2018-01-16T04:05:48.366Z,94.36
2018-01-16T04:06:48.634Z,94.09
2018-01-16T04:07:48.433Z,94.06
2018-01-16T04:08:48.536Z,94.29
2018-01-16T04:09:48.415Z,94.09
2018-01-16T04:10:48.582Z,93.9
2018-01-16T04:11:48.438Z,93.98
2018-01-16T04:12:48.590Z,94.13
2018-01-16T04:13:48.700Z,93.92
2018-01-16T04:14:48.489Z,93.85
2018-01-16T04:15:48.562Z,93.83
2018-01-16T04:16:48.501Z,93.75
2018-01-16T04:17:48.623Z,93.61
2018-01-16T04:18:48.648Z,93.24
2018-01-16T04:19:48.510Z,93.75
2018-01-16T04:20:48.541Z,93.77
2018-01-16T04:21:48.652Z,93.58
2018-01-16T04:22:48.534Z,93.8
2018-01-16T04:23:48.483Z,93.68
2018-01-16T04:24:48.440Z,93.8
2018-01-16T04:25:48.485Z,93.51
2018-01-16T04:26:48.377Z,93.64
2018-01-16T04:27:48.649Z,93.75
2018-01-16T04:28:48.400Z,93.64
2018-01-16T04:29:48.463Z,93.21
2018-01-16T04:30:48.323Z,93.22
2018-01-16T04:31:48.502Z,93.3
2018-01-16T04:32:48.648Z,92.96
2018-01-16T04:33:48.695Z,93.29
2018-01-16T04:34:48.527Z,93.49
2018-01-16T04:35:48.437Z,93.42
2018-01-16T04:36:48.528Z,93.42
2018-01-16T04:37:48.501Z,93.1
2018-01-16T04:38:48.662Z,92.91
2018-01-16T04:39:48.660Z,93.19
2018-01-16T04:40:48.577Z,93.03
2018-01-16T04:41:48.402Z,92.97
2018-01-16T04:42:48.739Z,92.92
2018-01-16T04:43:48.710Z,93.08
2018-01-16T04:44:48.477Z,93.32
2018-01-16T04:45:48.568Z,93.31
2018-01-16T04:46:48.492Z,93.42
2018-01-16T04:47:48.538Z,93.42
2018-01-16T04:48:48.618Z,93.26
2018-01-16T04:49:48.578Z,93.42
2018-01-16T04:50:48.891Z,93.64
2018-01-16T04:51:48.529Z,93.75
2018-01-16T04:52:48.679Z,93.76
2018-01-16T04:53:48.559Z,93.48
2018-01-16T04:54:48.520Z,93.45
2018-01-16T04:55:48.577Z,93.75
2018-01-16T04:56:48.402Z,93.82
2018-01-16T04:57:48.789Z,94.14
2018-01-16T04:58:48.437Z,94.27
2018-01-16T04:59:48.401Z,94.34
2018-01-16T05:00:48.524Z,94.46
2018-01-16T05:01:48.473Z,94.38
2018-01-16T05:02:48.608Z,94.69
2018-01-16T05:03:48.521Z,94.49
2018-01-16T05:04:48.622Z,94.81
2018-01-16T05:05:48.594Z,94.84
2018-01-16T05:06:48.563Z,94.89
2018-01-16T05:07:48.558Z,95.02
2018-01-16T05:08:48.686Z,94.55
2018-01-16T05:09:48.602Z,94.45
2018-01-16T05:10:48.690Z,94.95
2018-01-16T05:11:48.532Z,94.83
2018-01-16T05:12:48.477Z,94.94
2018-01-16T05:13:48.459Z,95.15
2018-01-16T05:14:48.656Z,95.11
2018-01-16T05:15:48.567Z,95.27
2018-01-16T05:16:48.579Z,95.46
2018-01-16T05:17:48.514Z,95.33
2018-01-16T05:18:48.508Z,95.58
2018-01-16T05:19:48.744Z,95.79
2018-01-16T05:20:48.707Z,95.44
2018-01-16T05:21:48.533Z,95.71
2018-01-16T05:22:48.534Z,95.48
2018-01-16T05:23:48.520Z,95.64
2018-01-16T05:24:48.527Z,95.67
2018-01-16T05:25:48.684Z,95.84
2018-01-16T05:26:48.677Z,95.79
2018-01-16T05:27:48.552Z,96
2018-01-16T05:28:48.531Z,95.62
2018-01-16T05:29:48.565Z,95.98
2018-01-16T05:30:48.616Z,95.94
2018-01-16T05:31:48.567Z,95.91
2018-01-16T05:32:48.434Z,95.95
2018-01-16T05:33:48.762Z,95.72
2018-01-16T05:34:48.760Z,95.75
2018-01-16T05:35:48.452Z,95.93
2018-01-16T05:36:48.553Z,95.83
2018-01-16T05:37:48.608Z,95.83
2018-01-16T05:38:48.475Z,95.7
2018-01-16T05:39:48.632Z,95.83
2018-01-16T05:40:49.120Z,95.72
2018-01-16T05:41:48.716Z,95.89
2018-01-16T05:42:48.585Z,95.89
2018-01-16T05:43:48.534Z,95.77
2018-01-16T05:44:48.525Z,95.84
2018-01-16T05:45:48.652Z,95.79
2018-01-16T05:46:48.647Z,95.65
2018-01-16T05:47:48.518Z,95.79
2018-01-16T05:48:48.453Z,95.93
2018-01-16T05:49:48.643Z,95.8
2018-01-16T05:50:48.477Z,95.8
2018-01-16T05:51:48.813Z,95.69
2018-01-16T05:52:48.490Z,96.04
2018-01-16T05:53:48.543Z,95.92
2018-01-16T05:54:48.617Z,96.1
2018-01-16T05:55:48.569Z,96.16
2018-01-16T05:56:48.542Z,96
2018-01-16T05:57:48.601Z,95.92
2018-01-16T05:58:48.602Z,95.8
2018-01-16T05:59:48.712Z,95.56
2018-01-16T06:00:48.559Z,96
2018-01-16T06:01:48.499Z,95.97
2018-01-16T06:02:48.912Z,96.03
2018-01-16T06:03:48.578Z,96.11
2018-01-16T06:04:48.739Z,96.12
2018-01-16T06:05:48.731Z,96.25
2018-01-16T06:06:48.856Z,96.02
2018-01-16T06:07:48.717Z,95.76
2018-01-16T06:08:48.736Z,95.89
2018-01-16T06:09:48.678Z,96.03
2018-01-16T06:10:48.708Z,96.21
2018-01-16T06:11:48.597Z,96.24
2018-01-16T06:12:48.619Z,96.05
2018-01-16T06:13:48.816Z,96.2
2018-01-16T06:14:48.540Z,96.37
2018-01-16T06:15:48.681Z,96.27
2018-01-16T06:16:48.599Z,96.36
2018-01-16T06:17:48.490Z,96.42
2018-01-16T06:18:48.884Z,96.67
2018-01-16T06:19:48.662Z,96.55
2018-01-16T06:20:48.648Z,96.71
2018-01-16T06:21:48.780Z,96.54
2018-01-16T06:22:48.677Z,96.21
2018-01-16T06:23:48.785Z,96.44
2018-01-16T06:24:48.781Z,96.45
2018-01-16T06:25:48.626Z,96.65
2018-01-16T06:26:48.642Z,96.4
2018-01-16T06:27:48.548Z,96.65
2018-01-16T06:28:48.576Z,96.57
2018-01-16T06:29:48.731Z,96.46
2018-01-16T06:30:48.797Z,96.42
2018-01-16T06:31:48.811Z,96.52
2018-01-16T06:32:48.680Z,96.46
2018-01-16T06:33:48.729Z,96.61
2018-01-16T06:34:48.775Z,96.51
2018-01-16T06:35:49.144Z,96.52
2018-01-16T06:36:48.614Z,96.69
2018-01-16T06:37:48.644Z,96.61
2018-01-16T06:38:48.855Z,96.46
2018-01-16T06:39:48.521Z,96.63
2018-01-16T06:40:48.642Z,96.69
2018-01-16T06:41:48.796Z,96.61
2018-01-16T06:42:48.791Z,96.85
2018-01-16T06:43:48.697Z,96.82
2018-01-16T06:44:48.519Z,96.79
2018-01-16T06:45:48.703Z,96.87
2018-01-16T06:46:48.582Z,96.88
2018-01-16T06:47:48.841Z,96.75
2018-01-16T06:48:48.690Z,96.69
2018-01-16T06:49:48.698Z,96.85
2018-01-16T06:50:48.691Z,96.83
2018-01-16T06:51:48.577Z,96.81
2018-01-16T06:52:48.781Z,96.9
2018-01-16T06:53:48.856Z,96.99
2018-01-16T06:54:48.696Z,96.7
2018-01-16T06:55:48.766Z,96.92
2018-01-16T06:56:49.098Z,96.8
2018-01-16T06:57:48.487Z,96.65
2018-01-16T06:58:48.697Z,96.65
2018-01-16T06:59:48.693Z,96.72
2018-01-16T07:00:48.745Z,96.71
2018-01-16T07:01:48.626Z,96.64
2018-01-16T07:02:48.738Z,96.57
2018-01-16T07:03:48.864Z,96.47
2018-01-16T07:04:48.626Z,96.5
2018-01-16T07:05:48.745Z,96.45
2018-01-16T07:06:48.663Z,96.51
2018-01-16T07:07:48.782Z,96.42
2018-01-16T07:08:48.855Z,96.35
2018-01-16T07:09:48.689Z,96.77
2018-01-16T07:10:48.819Z,96.69
2018-01-16T07:11:48.786Z,96.28
2018-01-16T07:12:48.727Z,96.61
2018-01-16T07:13:48.876Z,96.87
2018-01-16T07:14:48.732Z,96.6
2018-01-16T07:15:48.727Z,96.4
2018-01-16T07:16:48.975Z,96.63
2018-01-16T07:17:48.684Z,96.73
2018-01-16T07:18:48.805Z,96.71
2018-01-16T07:19:48.932Z,96.68
2018-01-16T07:20:48.729Z,96.84
2018-01-16T07:21:49.161Z,96.78
2018-01-16T07:22:48.810Z,96.59
2018-01-16T07:23:48.932Z,96.47
2018-01-16T07:24:48.690Z,96.37
2018-01-16T07:25:48.840Z,96.4
2018-01-16T07:26:48.776Z,96.33
2018-01-16T07:27:48.742Z,96.56
2018-01-16T07:28:48.619Z,96.53
2018-01-16T07:29:48.716Z,96.78
2018-01-16T07:30:48.746Z,96.46
2018-01-16T07:31:49.041Z,96.54
2018-01-16T07:32:48.759Z,96.41
2018-01-16T07:33:49.079Z,96.28
2018-01-16T07:34:48.810Z,96.52
2018-01-16T07:35:48.779Z,96.3
2018-01-16T07:36:48.957Z,96.37
2018-01-16T07:37:48.749Z,96.24
2018-01-16T07:38:48.899Z,96.13
2018-01-16T07:39:48.890Z,96.24
2018-01-16T07:40:48.896Z,96.4
2018-01-16T07:41:48.797Z,96.43
2018-01-16T07:42:49.029Z,95.98
2018-01-16T07:43:48.772Z,96.08
2018-01-16T07:44:49.271Z,96.3
2018-01-16T07:45:48.804Z,96.23
2018-01-16T07:46:48.955Z,96
2018-01-16T07:47:48.796Z,96.09
2018-01-16T07:48:49.209Z,95.89
2018-01-16T07:49:48.849Z,96.3
2018-01-16T07:50:48.813Z,96.04
2018-01-16T07:51:48.670Z,95.83
2018-01-16T07:52:48.891Z,95.93
2018-01-16T07:53:48.890Z,95.73
2018-01-16T07:54:48.832Z,95.39
2018-01-16T07:55:48.746Z,95.37
2018-01-16T07:56:48.744Z,94.59
2018-01-16T07:57:48.853Z,93.84
2018-01-16T07:58:48.872Z,93.44
2018-01-16T07:59:49.054Z,93
2018-01-16T08:00:48.761Z,93
2018-01-16T08:01:48.851Z,92.11
2018-01-16T08:02:48.727Z,92.31
2018-01-16T08:03:49.462Z,92.87
2018-01-16T08:04:48.359Z,92.68
2018-01-16T08:05:48.429Z,92.73
2018-01-16T08:06:48.346Z,92.32
2018-01-16T08:07:48.310Z,92.59
2018-01-16T08:08:48.387Z,92.58
2018-01-16T08:09:48.394Z,93.11
2018-01-16T08:10:48.514Z,93.17
2018-01-16T08:11:48.287Z,91.95
2018-01-16T08:12:48.502Z,91.75
2018-01-16T08:13:48.246Z,91.75
2018-01-16T08:14:48.450Z,91.37
2018-01-16T08:15:48.310Z,90.8
2018-01-16T08:16:48.324Z,90.45
2018-01-16T08:17:48.236Z,90.55
2018-01-16T08:18:48.234Z,90.03
2018-01-16T08:19:48.342Z,90.53
2018-01-16T08:20:48.248Z,91.09
2018-01-16T08:21:48.282Z,91.3
2018-01-16T08:22:48.486Z,91.22
2018-01-16T08:23:48.285Z,91.39
2018-01-16T08:24:48.261Z,92
2018-01-16T08:25:48.270Z,91.39
2018-01-16T08:26:48.175Z,91.86
2018-01-16T08:27:48.798Z,91.35
2018-01-16T08:28:48.258Z,91.66
2018-01-16T08:29:48.526Z,92.12
2018-01-16T08:30:49.690Z,92.23
2018-01-16T08:31:48.477Z,91.7
2018-01-16T08:32:48.360Z,91.28
2018-01-16T08:33:48.437Z,91.32
2018-01-16T08:34:48.547Z,91.96
2018-01-16T08:35:48.506Z,91.7
2018-01-16T08:36:48.420Z,91.7
2018-01-16T08:37:48.326Z,91.85
2018-01-16T08:38:48.474Z,91.66
2018-01-16T08:39:48.268Z,91.95
2018-01-16T08:40:48.470Z,92.2
2018-01-16T08:41:48.542Z,92.43
2018-01-16T08:42:48.723Z,92.6
2018-01-16T08:43:48.337Z,92.94
2018-01-16T08:44:48.318Z,92.94
2018-01-16T08:45:48.334Z,92.85
2018-01-16T08:46:48.160Z,93.16
2018-01-16T08:47:48.511Z,93
2018-01-16T08:48:48.177Z,93.26
2018-01-16T08:49:48.478Z,93.6
2018-01-16T08:50:48.396Z,93.66
2018-01-16T08:51:48.353Z,93.77
2018-01-16T08:52:48.376Z,93.66
2018-01-16T08:53:48.487Z,93.62
2018-01-16T08:54:48.361Z,93.48
2018-01-16T08:55:48.454Z,93.79
2018-01-16T08:56:48.568Z,93.93
2018-01-16T08:57:48.391Z,93.78
2018-01-16T08:58:48.285Z,93.86
2018-01-16T08:59:48.560Z,93.86
2018-01-16T09:00:48.360Z,93.87
2018-01-16T09:01:48.306Z,94.03
2018-01-16T09:02:48.259Z,94.1
2018-01-16T09:03:48.206Z,93.99
2018-01-16T09:04:48.784Z,93.82
2018-01-16T09:05:48.593Z,92.97
2018-01-16T09:06:48.456Z,93.31
2018-01-16T09:07:48.405Z,93.48
2018-01-16T09:08:48.572Z,93.63
2018-01-16T09:09:48.699Z,93.62
2018-01-16T09:10:48.517Z,93.97
2018-01-16T09:11:48.452Z,94.3
2018-01-16T09:12:48.615Z,94.07
2018-01-16T09:13:48.668Z,93.52
2018-01-16T09:14:48.500Z,93.87
2018-01-16T09:15:48.437Z,93.1
2018-01-16T09:16:48.525Z,92.69
2018-01-16T09:17:48.494Z,92.25
2018-01-16T09:18:48.839Z,91.24
2018-01-16T09:19:48.622Z,90.99
2018-01-16T09:20:48.561Z,90.21
2018-01-16T09:21:48.565Z,90.21
2018-01-16T09:22:48.553Z,90.46
2018-01-16T09:23:48.652Z,90.07
2018-01-16T09:24:48.515Z,89.9
2018-01-16T09:25:48.380Z,89.95
2018-01-16T09:26:48.540Z,89.07
2018-01-16T09:27:48.600Z,89.17
2018-01-16T09:28:48.717Z,88.56
2018-01-16T09:29:48.240Z,88.67
2018-01-16T09:30:48.438Z,88.92
2018-01-16T09:31:48.539Z,89.28
2018-01-16T09:32:48.476Z,89.35
2018-01-16T09:33:48.628Z,89.47
2018-01-16T09:34:48.635Z,88.61
2018-01-16T09:35:48.642Z,89.49
2018-01-16T09:36:48.559Z,89.84
2018-01-16T09:37:48.635Z,89.96
2018-01-16T09:38:48.703Z,89.74
2018-01-16T09:39:48.594Z,89.45
2018-01-16T09:40:48.570Z,89.49
2018-01-16T09:41:48.515Z,89.61
2018-01-16T09:42:48.588Z,88.53
2018-01-16T09:43:48.745Z,89.27
2018-01-16T09:44:48.892Z,88.7
2018-01-16T09:45:50.498Z,87.96
2018-01-16T09:46:48.496Z,87.34
2018-01-16T09:47:48.535Z,87.19
2018-01-16T09:48:48.425Z,87.64
2018-01-16T09:49:48.703Z,86.7
2018-01-16T09:50:48.625Z,86.36
2018-01-16T09:51:48.432Z,86.36
2018-01-16T09:52:48.428Z,86.94
2018-01-16T09:53:48.495Z,86.47
2018-01-16T09:54:48.513Z,86.29
2018-01-16T09:55:48.780Z,86.78
2018-01-16T09:56:48.628Z,86.91
2018-01-16T09:57:48.734Z,86.93
2018-01-16T09:58:48.727Z,86.8
2018-01-16T09:59:48.568Z,86.98
2018-01-16T10:00:48.642Z,86.78
2018-01-16T10:01:48.627Z,86.88
2018-01-16T10:02:48.485Z,86.76
2018-01-16T10:03:48.697Z,86.27
2018-01-16T10:04:48.662Z,86.55
2018-01-16T10:05:48.861Z,86.76
2018-01-16T10:06:48.840Z,86.6
2018-01-16T10:07:48.615Z,86.43
2018-01-16T10:08:48.586Z,86.34
2018-01-16T10:09:48.699Z,85.89
2018-01-16T10:10:48.784Z,85.86
2018-01-16T10:11:48.706Z,85.97
2018-01-16T10:12:48.623Z,86.02
2018-01-16T10:13:48.793Z,86.01
2018-01-16T10:14:48.922Z,86.26
2018-01-16T10:15:48.982Z,86.38
2018-01-16T10:16:48.722Z,86.42
2018-01-16T10:17:48.831Z,86.37
2018-01-16T10:18:48.806Z,86.27
2018-01-16T10:19:48.887Z,86.23
2018-01-16T10:21:48.738Z,86.24
2018-01-16T10:22:48.890Z,86.15
2018-01-16T10:23:48.736Z,86.17
2018-01-16T10:24:48.815Z,86.54
2018-01-16T10:25:48.767Z,86.63
2018-01-16T10:26:48.921Z,86.82
2018-01-16T10:27:48.821Z,86.96
2018-01-16T10:28:48.824Z,87.24
2018-01-16T10:29:48.612Z,87.4
2018-01-16T10:30:48.986Z,87.14
2018-01-16T10:31:48.822Z,87.11
2018-01-16T10:32:48.760Z,87.06
2018-01-16T10:33:48.828Z,87.48
2018-01-16T10:34:49.074Z,86.92
2018-01-16T10:35:49.041Z,87.36
2018-01-16T10:36:49.068Z,87.42
2018-01-16T10:37:48.997Z,87.64
2018-01-16T10:38:49.445Z,87.64
2018-01-16T10:39:48.656Z,87.24
2018-01-16T10:40:48.814Z,87.46
2018-01-16T10:41:48.896Z,87.84
2018-01-16T10:42:48.790Z,88.01
2018-01-16T10:43:48.664Z,87.94
2018-01-16T10:44:48.610Z,88.07
2018-01-16T10:45:48.921Z,88.23
2018-01-16T10:46:48.805Z,87.88
2018-01-16T10:47:48.808Z,87.58
2018-01-16T10:48:48.777Z,87.16
2018-01-16T10:49:48.883Z,88.02
2018-01-16T10:50:48.920Z,87.26
2018-01-16T10:51:48.815Z,87.22
2018-01-16T10:52:48.774Z,87.58
2018-01-16T10:53:48.866Z,87.32
2018-01-16T10:54:48.988Z,86.04
2018-01-16T10:55:48.920Z,86.66
2018-01-16T10:56:48.993Z,86.89
2018-01-16T10:57:48.734Z,86.44
2018-01-16T10:58:48.911Z,86.7
2018-01-16T10:59:48.789Z,86.43
2018-01-16T11:00:48.974Z,86.53
2018-01-16T11:01:49.047Z,85.36
2018-01-16T11:02:48.928Z,84.33
2018-01-16T11:03:48.923Z,83.84
2018-01-16T11:04:49.135Z,82.69
2018-01-16T11:05:49.144Z,82.55
2018-01-16T11:06:48.939Z,82.59
2018-01-16T11:07:48.741Z,83.29
2018-01-16T11:08:48.866Z,82.89
2018-01-16T11:09:48.656Z,82.89
2018-01-16T11:10:48.867Z,82.61
2018-01-16T11:11:49.088Z,82.3
2018-01-16T11:12:48.929Z,81.82
2018-01-16T11:13:49.042Z,82.53
2018-01-16T11:14:48.734Z,82.04
2018-01-16T11:15:48.766Z,82.24
2018-01-16T11:16:48.842Z,82.77
2018-01-16T11:17:49.757Z,81.73
2018-01-16T11:18:48.847Z,82.82
2018-01-16T11:19:49.849Z,82.62
2018-01-16T11:20:50.313Z,82.4
2018-01-16T11:21:50.898Z,83.17
2018-01-16T11:22:50.738Z,83.55
2018-01-16T11:23:48.750Z,82.81
2018-01-16T11:24:49.024Z,81.99
2018-01-16T11:25:48.812Z,82
2018-01-16T11:26:49.180Z,82.36
2018-01-16T11:27:49.641Z,82.17
2018-01-16T11:28:49.014Z,83.29
2018-01-16T11:29:49.775Z,81.93
2018-01-16T11:30:50.546Z,81.92
2018-01-16T11:31:48.657Z,82.38
2018-01-16T11:32:49.915Z,82.17
2018-01-16T11:33:50.076Z,81.81
2018-01-16T11:34:51.950Z,81.67
2018-01-16T11:35:48.761Z,81.81
2018-01-16T11:36:49.484Z,81.5
2018-01-16T11:37:48.897Z,81.88
2018-01-16T11:38:49.758Z,81.93
2018-01-16T11:39:49.701Z,80.14
2018-01-16T11:40:50.094Z,79.82
2018-01-16T11:41:49.469Z,79.7
2018-01-16T11:42:50.454Z,78.79
2018-01-16T11:43:49.047Z,78.7
2018-01-16T11:44:48.933Z,78.52
2018-01-16T11:45:49.235Z,78.87
2018-01-16T11:46:48.702Z,79.37
2018-01-16T11:47:48.869Z,78.78
2018-01-16T11:48:49.569Z,78.75
2018-01-16T11:49:51.244Z,77.63
2018-01-16T11:50:49.473Z,77.98
2018-01-16T11:51:51.383Z,77.68
2018-01-16T11:52:50.959Z,78.08
2018-01-16T11:53:49.701Z,77.08
2018-01-16T11:54:50.074Z,78.19
2018-01-16T11:55:48.856Z,76.6
2018-01-16T11:56:50.215Z,76.95
2018-01-16T11:57:49.667Z,76.69
2018-01-16T11:58:48.944Z,74.82
2018-01-16T11:59:49.540Z,74.95
2018-01-16T12:00:48.951Z,74.58
2018-01-16T12:01:48.837Z,74.47
2018-01-16T12:02:48.901Z,75.02
2018-01-16T12:03:49.789Z,74.64
2018-01-16T12:04:49.104Z,74.76
2018-01-16T12:05:50.355Z,74.04
2018-01-16T12:06:49.481Z,73.46
2018-01-16T12:07:49.240Z,73.33
2018-01-16T12:08:50.788Z,73.86
2018-01-16T12:09:49.043Z,72.84
2018-01-16T12:10:49.226Z,72.51
2018-01-16T12:11:49.784Z,72.45
2018-01-16T12:12:48.891Z,72.73
2018-01-16T12:13:51.046Z,72.46
2018-01-16T12:14:51.463Z,71.52
2018-01-16T12:15:49.904Z,71.92
2018-01-16T12:16:49.505Z,73.21
2018-01-16T12:17:49.617Z,73.26
2018-01-16T12:18:49.174Z,73.69
2018-01-16T12:19:49.143Z,73.75
2018-01-16T12:20:50.290Z,73.45
2018-01-16T12:21:49.814Z,73.41
2018-01-16T12:22:49.724Z,74.82
2018-01-16T12:23:48.986Z,74.91
2018-01-16T12:24:49.054Z,74.46
2018-01-16T12:25:49.666Z,74.57
2018-01-16T12:26:49.692Z,74.46
2018-01-16T12:27:49.973Z,75.03
2018-01-16T12:28:50.545Z,74.31
2018-01-16T12:29:48.881Z,74.01
2018-01-16T12:30:52.088Z,74.13
2018-01-16T12:31:53.380Z,73.26
2018-01-16T12:32:49.937Z,73.53
2018-01-16T12:33:50.821Z,73.27
2018-01-16T12:34:49.206Z,73.33
2018-01-16T12:35:49.968Z,73.31
2018-01-16T12:36:49.801Z,74.51
2018-01-16T12:37:51.169Z,74.76
2018-01-16T12:38:50.658Z,73.68
2018-01-16T12:39:49.178Z,73.64
2018-01-16T12:40:52.553Z,73.94
2018-01-16T12:41:49.762Z,74.27
2018-01-16T12:42:49.949Z,74.14
2018-01-16T12:43:50.096Z,74.65
2018-01-16T12:44:51.978Z,73.58
2018-01-16T12:45:49.219Z,74.15
2018-01-16T12:46:49.065Z,73.54
2018-01-16T12:47:50.094Z,74.52
2018-01-16T12:48:49.359Z,74.22
2018-01-16T12:49:49.770Z,74.13
2018-01-16T12:50:49.117Z,73.96
2018-01-16T12:51:50.150Z,73.38
2018-01-16T12:52:50.523Z,73.46
2018-01-16T12:53:49.013Z,74.11
2018-01-16T12:54:48.961Z,74.07
2018-01-16T12:55:52.185Z,73.51
2018-01-16T12:56:50.586Z,72.9
2018-01-16T12:57:49.085Z,72.94
2018-01-16T12:58:49.012Z,73.55
2018-01-16T12:59:50.323Z,73.48
2018-01-16T13:00:50.612Z,73.82
2018-01-16T13:01:49.036Z,72.18